Terminal Aerodrome Forecast
Issued by NWS Twin Cities, MN

Home | Current Version | Previous Version | Graphics & Text | Print | Product List | Glossary Off
Versions: 1 2 3 4 5 6 7 8 9 10 11 12 13 14

522
FTUS43 KMPX 261729
TAFSTC
TAF
KSTC 261729Z 2618/2718 35014G18KT P6SM SCT008 BKN012 OVC020
     FM270200 35009KT P6SM -SN BKN008 OVC012
     FM271400 33012KT P6SM SCT012 BKN020=

USA.gov is the U.S. government's official web portal to all federal, state and local government web resources and services.